createdAt,value
2022-11-09T00:00:48.899Z,99.99
2022-11-09T00:01:48.862Z,99.99
2022-11-09T00:02:48.851Z,99.99
2022-11-09T00:03:48.901Z,99.99
2022-11-09T00:04:48.825Z,99.99
2022-11-09T00:05:48.901Z,99.99
2022-11-09T00:06:48.870Z,99.99
2022-11-09T00:07:48.787Z,99.99
2022-11-09T00:08:48.772Z,99.99
2022-11-09T00:09:48.821Z,99.99
2022-11-09T00:10:48.770Z,99.99
2022-11-09T00:11:48.731Z,99.99
2022-11-09T00:12:48.722Z,99.99
2022-11-09T00:13:48.706Z,99.99
2022-11-09T00:14:48.692Z,99.99
2022-11-09T00:15:48.767Z,99.99
2022-11-09T00:16:48.672Z,99.99
2022-11-09T00:17:48.653Z,99.99
2022-11-09T00:18:48.651Z,99.99
2022-11-09T00:19:48.624Z,99.99
2022-11-09T00:20:48.808Z,99.99
2022-11-09T00:21:48.614Z,99.98
2022-11-09T00:22:48.591Z,99.91
2022-11-09T00:23:48.572Z,99.87
2022-11-09T00:24:48.564Z,99.87
2022-11-09T00:25:48.544Z,99.77
2022-11-09T00:26:48.555Z,99.77
2022-11-09T00:27:48.523Z,99.77
2022-11-09T00:28:48.547Z,99.66
2022-11-09T00:29:48.494Z,99.66
2022-11-09T00:30:48.607Z,99.56
2022-11-09T00:31:48.483Z,99.56
2022-11-09T00:32:48.464Z,99.56
2022-11-09T00:33:48.443Z,99.56
2022-11-09T00:34:48.434Z,99.56
2022-11-09T00:35:48.413Z,99.56
2022-11-09T00:36:48.423Z,99.56
2022-11-09T00:37:48.446Z,99.66
2022-11-09T00:38:48.387Z,99.66
2022-11-09T00:39:48.364Z,99.66
2022-11-09T00:40:48.355Z,99.66
2022-11-09T00:41:48.354Z,99.71
2022-11-09T00:42:48.332Z,99.77
2022-11-09T00:43:48.313Z,99.82
2022-11-09T00:44:48.304Z,99.87
2022-11-09T00:45:48.284Z,99.87
2022-11-09T00:46:48.295Z,99.98
2022-11-09T00:47:48.254Z,99.98
2022-11-09T00:48:48.254Z,99.99
2022-11-09T00:49:48.234Z,99.98
2022-11-09T00:50:48.224Z,99.99
2022-11-09T00:51:48.224Z,99.99
2022-11-09T00:52:48.194Z,99.98
2022-11-09T00:53:48.187Z,99.99
2022-11-09T00:54:48.174Z,99.99
2022-11-09T00:55:48.154Z,99.99
2022-11-09T00:56:48.163Z,99.99
2022-11-09T00:57:48.132Z,99.99
2022-11-09T00:58:48.114Z,99.99
2022-11-09T00:59:48.106Z,99.99
2022-11-09T01:00:48.127Z,99.99
2022-11-09T01:01:48.095Z,99.99
2022-11-09T01:02:48.065Z,99.99
2022-11-09T01:03:48.052Z,99.99
2022-11-09T01:04:48.046Z,99.99
2022-11-09T01:05:48.023Z,99.99
2022-11-09T01:06:48.077Z,99.99
2022-11-09T01:07:48.008Z,99.99
2022-11-09T01:08:48.001Z,99.99
2022-11-09T01:09:47.966Z,99.99
2022-11-09T01:10:47.962Z,99.99
2022-11-09T01:11:47.956Z,99.99
2022-11-09T01:12:47.936Z,99.99
2022-11-09T01:13:47.917Z,99.99
2022-11-09T01:14:47.907Z,99.99
2022-11-09T01:15:47.895Z,99.99
2022-11-09T01:16:47.895Z,99.99
2022-11-09T01:17:47.865Z,99.99
2022-11-09T01:18:47.856Z,99.99
2022-11-09T01:19:47.835Z,99.99
2022-11-09T01:20:47.827Z,99.99
2022-11-09T01:21:47.834Z,99.99
2022-11-09T01:22:47.797Z,99.99
2022-11-09T01:23:47.785Z,99.99
2022-11-09T01:24:47.775Z,99.99
2022-11-09T01:25:47.758Z,99.99
2022-11-09T01:26:47.766Z,99.99
2022-11-09T01:27:47.735Z,99.99
2022-11-09T01:28:47.739Z,99.99
2022-11-09T01:29:47.706Z,99.99
2022-11-09T01:30:47.697Z,99.99
2022-11-09T01:31:47.696Z,99.99
2022-11-09T01:32:47.667Z,99.99
2022-11-09T01:33:47.655Z,99.99
2022-11-09T01:34:47.646Z,99.99
2022-11-09T01:35:47.626Z,99.99
2022-11-09T01:36:47.637Z,99.99
2022-11-09T01:37:47.606Z,99.99
2022-11-09T01:38:47.594Z,99.99
2022-11-09T01:39:47.576Z,99.99
2022-11-09T01:40:47.575Z,99.99
2022-11-09T01:41:47.570Z,99.99
2022-11-09T01:42:47.539Z,99.99
2022-11-09T01:43:47.528Z,99.99
2022-11-09T01:44:47.516Z,99.99
2022-11-09T01:45:47.498Z,99.99
2022-11-09T01:46:47.506Z,99.99
2022-11-09T01:47:47.479Z,99.99
2022-11-09T01:48:47.457Z,99.99
2022-11-09T01:49:47.446Z,99.99
2022-11-09T01:50:47.428Z,99.99
2022-11-09T01:51:47.437Z,99.99
2022-11-09T01:52:47.402Z,99.99
2022-11-09T01:53:47.396Z,99.99
2022-11-09T01:54:47.378Z,99.99
2022-11-09T01:55:47.418Z,99.99
2022-11-09T01:56:47.378Z,99.99
2022-11-09T01:57:47.341Z,99.99
2022-11-09T01:58:47.328Z,99.99
2022-11-09T01:59:47.315Z,99.99
2022-11-09T02:00:47.346Z,99.99
2022-11-09T02:01:47.358Z,99.99
2022-11-09T02:02:47.288Z,99.99
2022-11-09T02:03:47.268Z,99.99
2022-11-09T02:04:47.245Z,99.99
2022-11-09T02:05:47.237Z,99.99
2022-11-09T02:06:47.268Z,99.99
2022-11-09T02:07:47.227Z,99.99
2022-11-09T02:08:47.194Z,99.99
2022-11-09T02:09:47.187Z,99.99
2022-11-09T02:10:47.167Z,99.99
2022-11-09T02:11:47.157Z,99.99
2022-11-09T02:12:47.158Z,99.99
2022-11-09T02:13:47.128Z,99.99
2022-11-09T02:14:47.120Z,99.99
2022-11-09T02:15:47.106Z,99.99
2022-11-09T02:16:47.106Z,99.99
2022-11-09T02:17:47.106Z,99.99
2022-11-09T02:18:47.067Z,99.99
2022-11-09T02:19:47.058Z,99.99
2022-11-09T02:20:47.037Z,99.99
2022-11-09T02:21:47.038Z,99.99
2022-11-09T02:22:47.027Z,99.99
2022-11-09T02:23:47.008Z,99.99
2022-11-09T02:24:46.987Z,99.99
2022-11-09T02:25:46.990Z,99.99
2022-11-09T02:26:46.958Z,99.99
2022-11-09T02:27:46.968Z,99.99
2022-11-09T02:28:46.927Z,99.99
2022-11-09T02:29:46.917Z,99.99
2022-11-09T02:30:46.908Z,99.99
2022-11-09T02:31:46.898Z,99.99
2022-11-09T02:32:46.896Z,99.99
2022-11-09T02:33:46.871Z,99.99
2022-11-09T02:34:46.856Z,99.99
2022-11-09T02:35:46.849Z,99.99
2022-11-09T02:36:46.837Z,99.99
2022-11-09T02:37:46.843Z,99.99
2022-11-09T02:38:46.797Z,99.99
2022-11-09T02:39:46.787Z,99.99
2022-11-09T02:40:46.777Z,99.99
2022-11-09T02:41:46.766Z,99.99
2022-11-09T02:42:46.767Z,99.99
2022-11-09T02:43:46.741Z,99.99
2022-11-09T02:44:46.718Z,99.99
2022-11-09T02:45:46.709Z,99.99
2022-11-09T02:46:46.708Z,99.99
2022-11-09T02:47:46.707Z,99.99
2022-11-09T02:48:46.668Z,99.99
2022-11-09T02:49:46.668Z,99.99
2022-11-09T02:50:46.637Z,99.99
2022-11-09T02:51:46.629Z,99.99
2022-11-09T02:52:46.640Z,99.99
2022-11-09T02:53:46.598Z,99.99
2022-11-09T02:54:46.593Z,99.99
2022-11-09T02:55:46.581Z,99.99
2022-11-09T02:56:46.557Z,99.99
2022-11-09T02:57:46.560Z,99.99
2022-11-09T02:58:46.548Z,99.99
2022-11-09T02:59:46.526Z,99.99
2022-11-09T03:00:46.577Z,99.99
2022-11-09T03:01:46.497Z,99.99
2022-11-09T03:02:46.477Z,99.99
2022-11-09T03:03:46.493Z,99.99
2022-11-09T03:04:46.462Z,99.99
2022-11-09T03:05:46.445Z,99.99
2022-11-09T03:06:46.486Z,99.99
2022-11-09T03:07:46.420Z,99.99
2022-11-09T03:08:46.418Z,99.99
2022-11-09T03:09:46.389Z,99.99
2022-11-09T03:10:46.368Z,99.99
2022-11-09T03:11:46.375Z,99.99
2022-11-09T03:12:46.346Z,99.99
2022-11-09T03:13:46.348Z,99.99
2022-11-09T03:14:46.319Z,99.99
2022-11-09T03:15:46.317Z,99.99
2022-11-09T03:16:50.159Z,99.99
2022-11-09T03:17:46.288Z,99.99
2022-11-09T03:18:46.285Z,99.99
2022-11-09T03:19:46.261Z,99.99
2022-11-09T03:20:46.239Z,99.99
2022-11-09T03:21:46.232Z,99.99
2022-11-09T03:22:46.208Z,99.99
2022-11-09T03:23:46.217Z,99.99
2022-11-09T03:24:46.186Z,99.99
2022-11-09T03:25:46.178Z,99.99
2022-11-09T03:26:46.166Z,99.99
2022-11-09T03:27:46.150Z,99.99
2022-11-09T03:28:46.159Z,99.99
2022-11-09T03:29:46.126Z,99.99
2022-11-09T03:30:46.114Z,99.99
2022-11-09T03:31:46.100Z,99.99
2022-11-09T03:32:50.442Z,99.99
2022-11-09T03:33:46.099Z,99.99
2022-11-09T03:34:46.059Z,99.99
2022-11-09T03:35:46.061Z,99.99
2022-11-09T03:36:46.033Z,99.99
2022-11-09T03:37:46.102Z,99.99
2022-11-09T03:38:46.029Z,99.99
2022-11-09T03:39:45.999Z,99.99
2022-11-09T03:40:45.981Z,99.99
2022-11-09T03:41:45.976Z,99.99
2022-11-09T03:42:45.953Z,99.99
2022-11-09T03:43:45.961Z,99.99
2022-11-09T03:44:45.930Z,99.99
2022-11-09T03:45:45.921Z,99.99
2022-11-09T03:46:45.908Z,99.99
2022-11-09T03:47:45.890Z,99.99
2022-11-09T03:48:45.890Z,99.99
2022-11-09T03:49:45.872Z,99.99
2022-11-09T03:50:45.854Z,99.99
2022-11-09T03:51:45.840Z,99.99
2022-11-09T03:52:45.828Z,99.99
2022-11-09T03:53:45.835Z,99.99
2022-11-09T03:54:45.801Z,99.99
2022-11-09T03:55:45.792Z,99.99
2022-11-09T03:56:45.775Z,99.99
2022-11-09T03:57:45.760Z,99.99
2022-11-09T03:58:45.758Z,99.99
2022-11-09T03:59:45.730Z,99.99
2022-11-09T04:00:45.719Z,99.99
2022-11-09T04:01:45.742Z,99.99
2022-11-09T04:02:45.691Z,99.99
2022-11-09T04:03:45.706Z,99.99
2022-11-09T04:04:45.665Z,99.99
2022-11-09T04:05:45.661Z,99.99
2022-11-09T04:06:45.689Z,99.99
2022-11-09T04:07:45.631Z,99.99
2022-11-09T04:08:50.915Z,99.99
2022-11-09T04:09:46.602Z,99.99
2022-11-09T04:10:45.581Z,99.99
2022-11-09T04:11:45.578Z,99.99
2022-11-09T04:12:45.560Z,99.99
2022-11-09T04:13:45.554Z,99.99
2022-11-09T04:14:45.550Z,99.99
2022-11-09T04:15:45.521Z,99.99
2022-11-09T04:16:45.501Z,99.99
2022-11-09T04:17:45.494Z,99.99
2022-11-09T04:18:45.481Z,99.99
2022-11-09T04:19:45.483Z,99.99
2022-11-09T04:20:45.451Z,99.99
2022-11-09T04:21:45.441Z,99.99
2022-11-09T04:22:45.421Z,99.99
2022-11-09T04:23:45.411Z,99.99
2022-11-09T04:24:45.672Z,99.99
2022-11-09T04:25:45.392Z,99.99
2022-11-09T04:26:45.371Z,99.99
2022-11-09T04:27:45.362Z,99.99
2022-11-09T04:28:45.351Z,99.99
2022-11-09T04:29:45.352Z,99.99
2022-11-09T04:30:45.322Z,99.99
2022-11-09T04:31:45.311Z,99.99
2022-11-09T04:32:45.293Z,99.99
2022-11-09T04:33:45.282Z,99.99
2022-11-09T04:34:45.284Z,99.99
2022-11-09T04:35:45.264Z,99.99
2022-11-09T04:36:45.244Z,99.99
2022-11-09T04:37:45.232Z,99.99
2022-11-09T04:38:45.212Z,99.99
2022-11-09T04:39:45.222Z,99.99
2022-11-09T04:40:45.192Z,99.99
2022-11-09T04:41:45.183Z,99.99
2022-11-09T04:42:45.163Z,99.99
2022-11-09T04:43:45.153Z,99.99
2022-11-09T04:44:45.151Z,99.99
2022-11-09T04:45:45.123Z,99.99
2022-11-09T04:46:45.111Z,99.99
2022-11-09T04:47:45.103Z,99.99
2022-11-09T04:48:45.083Z,99.99
2022-11-09T04:49:45.093Z,99.99
2022-11-09T04:50:45.060Z,99.99
2022-11-09T04:51:45.050Z,99.99
2022-11-09T04:52:45.032Z,99.99
2022-11-09T04:53:45.023Z,99.99
2022-11-09T04:54:45.023Z,99.99
2022-11-09T04:55:45.004Z,99.99
2022-11-09T04:56:44.995Z,99.99
2022-11-09T04:57:44.973Z,99.99
2022-11-09T04:58:44.964Z,99.99
2022-11-09T04:59:44.963Z,99.99
2022-11-09T05:00:44.926Z,99.99
2022-11-09T05:01:44.922Z,99.99
2022-11-09T05:02:44.904Z,99.99
2022-11-09T05:03:44.967Z,99.99
2022-11-09T05:04:44.895Z,99.99
2022-11-09T05:05:48.355Z,99.99
2022-11-09T05:06:44.919Z,99.99
2022-11-09T05:07:44.867Z,99.99
2022-11-09T05:08:44.823Z,99.99
2022-11-09T05:09:44.833Z,99.99
2022-11-09T05:10:44.794Z,99.99
2022-11-09T05:11:44.791Z,99.99
2022-11-09T05:12:45.986Z,99.99
2022-11-09T05:13:44.762Z,99.99
2022-11-09T05:14:44.753Z,99.99
2022-11-09T05:15:44.741Z,99.99
2022-11-09T05:16:44.721Z,99.99
2022-11-09T05:17:44.710Z,99.99
2022-11-09T05:18:44.693Z,99.99
2022-11-09T05:19:44.694Z,99.99
2022-11-09T05:20:44.661Z,99.99
2022-11-09T05:21:44.670Z,99.99
2022-11-09T05:22:44.635Z,99.99
2022-11-09T05:23:44.638Z,99.99
2022-11-09T05:24:44.624Z,99.99
2022-11-09T05:25:44.613Z,99.99
2022-11-09T05:26:44.601Z,99.99
2022-11-09T05:27:44.577Z,99.99
2022-11-09T05:28:44.563Z,99.99
2022-11-09T05:29:44.564Z,99.99
2022-11-09T05:30:44.540Z,99.99
2022-11-09T05:31:49.166Z,99.99
2022-11-09T05:32:45.514Z,99.99
2022-11-09T05:33:44.504Z,99.99
2022-11-09T05:34:44.501Z,99.99
2022-11-09T05:35:44.474Z,99.99
2022-11-09T05:36:44.464Z,99.99
2022-11-09T05:37:44.456Z,99.99
2022-11-09T05:38:44.428Z,99.99
2022-11-09T05:39:44.442Z,99.99
2022-11-09T05:40:44.404Z,99.99
2022-11-09T05:41:44.395Z,99.99
2022-11-09T05:42:44.378Z,99.99
2022-11-09T05:43:44.367Z,99.99
2022-11-09T05:44:44.368Z,99.99
2022-11-09T05:45:44.606Z,99.99
2022-11-09T05:46:44.327Z,99.99
2022-11-09T05:47:44.314Z,99.99
2022-11-09T05:48:44.299Z,99.99
2022-11-09T05:49:44.312Z,99.99
2022-11-09T05:50:44.271Z,99.99
2022-11-09T05:51:44.265Z,99.99
2022-11-09T05:52:44.246Z,99.99
2022-11-09T05:53:46.646Z,99.99
2022-11-09T05:54:44.236Z,99.99
2022-11-09T05:55:44.217Z,99.99
2022-11-09T05:56:44.192Z,99.99
2022-11-09T05:57:44.186Z,99.99
2022-11-09T05:58:44.162Z,99.99
2022-11-09T05:59:44.176Z,99.99
2022-11-09T06:00:44.147Z,99.99
2022-11-09T06:01:44.170Z,99.99
2022-11-09T06:02:44.116Z,99.99
2022-11-09T06:03:44.439Z,99.99
2022-11-09T06:04:44.105Z,99.99
2022-11-09T06:05:44.076Z,99.99
2022-11-09T06:06:44.108Z,99.99
2022-11-09T06:07:44.046Z,99.99
2022-11-09T06:08:44.036Z,99.99
2022-11-09T06:09:44.037Z,99.99
2022-11-09T06:10:44.007Z,99.99
2022-11-09T06:11:43.996Z,99.99
2022-11-09T06:12:44.006Z,99.99
2022-11-09T06:13:43.967Z,99.99
2022-11-09T06:14:43.976Z,99.99
2022-11-09T06:15:43.947Z,99.99
2022-11-09T06:16:43.936Z,99.99
2022-11-09T06:17:43.915Z,99.99
2022-11-09T06:18:43.930Z,99.99
2022-11-09T06:19:43.907Z,99.99
2022-11-09T06:20:43.885Z,99.99
2022-11-09T06:21:43.877Z,99.99
2022-11-09T06:22:43.856Z,99.89
2022-11-09T06:23:43.835Z,99.58
2022-11-09T06:24:43.846Z,99.27
2022-11-09T06:25:43.806Z,99.07
2022-11-09T06:26:43.797Z,99.02
2022-11-09T06:27:43.786Z,99.02
2022-11-09T06:28:43.779Z,99.02
2022-11-09T06:29:43.775Z,99.22
2022-11-09T06:30:43.746Z,99.22
2022-11-09T06:31:43.727Z,99.32
2022-11-09T06:32:43.738Z,99.43
2022-11-09T06:33:43.724Z,99.57
2022-11-09T06:34:43.717Z,99.68
2022-11-09T06:35:43.688Z,99.78
2022-11-09T06:36:43.667Z,99.88
2022-11-09T06:37:43.657Z,99.98
2022-11-09T06:38:43.647Z,99.99
2022-11-09T06:39:43.644Z,99.99
2022-11-09T06:40:43.617Z,99.99
2022-11-09T06:41:47.450Z,99.99
2022-11-09T06:42:43.673Z,99.99
2022-11-09T06:43:43.579Z,99.99
2022-11-09T06:44:43.602Z,99.99
2022-11-09T06:45:43.546Z,99.99
2022-11-09T06:46:43.537Z,99.99
2022-11-09T06:47:43.521Z,99.99
2022-11-09T06:48:43.515Z,99.99
2022-11-09T06:49:43.508Z,99.99
2022-11-09T06:50:43.477Z,99.99
2022-11-09T06:51:43.457Z,99.99
2022-11-09T06:52:43.457Z,99.99
2022-11-09T06:53:43.458Z,99.99
2022-11-09T06:54:43.447Z,99.99
2022-11-09T06:55:49.896Z,99.99
2022-11-09T06:56:44.397Z,99.99
2022-11-09T06:57:43.388Z,99.99
2022-11-09T06:58:43.389Z,99.99
2022-11-09T06:59:43.379Z,99.99
2022-11-09T07:00:43.347Z,99.99
2022-11-09T07:01:43.389Z,99.99
2022-11-09T07:02:43.326Z,99.99
2022-11-09T07:03:43.309Z,99.99
2022-11-09T07:04:43.320Z,99.99
2022-11-09T07:05:43.279Z,99.99
2022-11-09T07:06:43.364Z,99.99
2022-11-09T07:07:43.255Z,99.99
2022-11-09T07:08:43.251Z,99.99
2022-11-09T07:09:43.253Z,99.99
2022-11-09T07:10:43.229Z,99.99
2022-11-09T07:11:43.199Z,99.99
2022-11-09T07:12:43.198Z,99.99
2022-11-09T07:13:43.168Z,99.99
2022-11-09T07:14:43.188Z,99.99
2022-11-09T07:15:43.148Z,99.99
2022-11-09T07:16:43.158Z,99.99
2022-11-09T07:17:43.129Z,99.99
2022-11-09T07:18:43.119Z,99.99
2022-11-09T07:19:43.117Z,99.99
2022-11-09T07:20:43.088Z,99.99
2022-11-09T07:21:43.069Z,99.99
2022-11-09T07:22:43.067Z,99.99
2022-11-09T07:23:43.048Z,99.99
2022-11-09T07:24:43.057Z,99.99
2022-11-09T07:25:43.019Z,99.99
2022-11-09T07:26:43.010Z,99.99
2022-11-09T07:27:42.999Z,99.99
2022-11-09T07:28:42.980Z,99.99
2022-11-09T07:29:42.988Z,99.99
2022-11-09T07:30:42.961Z,99.99
2022-11-09T07:31:42.939Z,99.99
2022-11-09T07:33:43.911Z,99.99
2022-11-09T07:34:42.921Z,99.99
2022-11-09T07:35:42.890Z,99.99
2022-11-09T07:36:42.880Z,99.99
2022-11-09T07:37:42.871Z,99.99
2022-11-09T07:38:49.956Z,99.99
2022-11-09T07:39:42.922Z,99.99
2022-11-09T07:40:42.863Z,99.99
2022-11-09T07:41:42.843Z,99.99
2022-11-09T07:42:42.860Z,99.99
2022-11-09T07:43:42.824Z,99.99
2022-11-09T07:44:42.804Z,99.99
2022-11-09T07:45:42.826Z,99.99
2022-11-09T07:46:42.780Z,99.99
2022-11-09T07:47:42.772Z,99.99
2022-11-09T07:48:42.754Z,99.99
2022-11-09T07:49:42.743Z,99.99
2022-11-09T07:50:42.743Z,99.99
2022-11-09T07:51:42.713Z,99.99
2022-11-09T07:52:42.767Z,99.99
2022-11-09T07:53:42.683Z,99.99
2022-11-09T07:54:42.672Z,99.99
2022-11-09T07:55:42.673Z,99.99
2022-11-09T07:56:42.654Z,99.99
2022-11-09T07:57:42.634Z,99.99
2022-11-09T07:58:42.633Z,99.99
2022-11-09T07:59:42.613Z,99.99
2022-11-09T08:00:42.625Z,99.99
2022-11-09T08:01:42.646Z,99.99
2022-11-09T08:02:42.573Z,99.99
2022-11-09T08:03:42.580Z,99.99
2022-11-09T08:04:42.543Z,99.99
2022-11-09T08:05:42.555Z,99.99
2022-11-09T08:06:42.571Z,99.99
2022-11-09T08:07:42.504Z,99.99
2022-11-09T08:08:42.501Z,99.99
2022-11-09T08:09:42.471Z,99.99
2022-11-09T08:10:42.513Z,99.99
2022-11-09T08:11:42.482Z,99.99
2022-11-09T08:12:42.451Z,99.99
2022-11-09T08:13:42.443Z,99.99
2022-11-09T08:14:42.443Z,99.99
2022-11-09T08:15:42.444Z,99.99
2022-11-09T08:16:42.393Z,99.99
2022-11-09T08:17:42.376Z,99.90
2022-11-09T08:18:42.363Z,99.79
2022-11-09T08:19:42.352Z,99.79
2022-11-09T08:20:42.352Z,99.69
2022-11-09T08:21:42.321Z,99.69
2022-11-09T08:22:42.306Z,99.69
2022-11-09T08:23:42.293Z,99.59
2022-11-09T08:24:42.286Z,99.59
2022-11-09T08:25:42.295Z,99.49
2022-11-09T08:26:42.255Z,99.44
2022-11-09T08:27:42.233Z,99.24
2022-11-09T08:28:42.233Z,99.34
2022-11-09T08:29:42.212Z,99.34
2022-11-09T08:30:42.223Z,99.24
2022-11-09T08:31:42.186Z,99.24
2022-11-09T08:32:42.173Z,99.24
2022-11-09T08:33:42.163Z,99.14
2022-11-09T08:34:42.143Z,99.14
2022-11-09T08:35:42.163Z,99.24
2022-11-09T08:36:42.125Z,99.24
2022-11-09T08:37:42.105Z,99.24
2022-11-09T08:38:42.093Z,99.24
2022-11-09T08:39:42.083Z,99.34
2022-11-09T08:40:42.083Z,99.34
2022-11-09T08:41:42.047Z,99.34
2022-11-09T08:42:42.044Z,99.29
2022-11-09T08:43:42.025Z,99.19
2022-11-09T08:44:42.013Z,98.99
2022-11-09T08:45:42.023Z,98.79
2022-11-09T08:46:41.994Z,98.64
2022-11-09T08:47:41.972Z,98.33
2022-11-09T08:48:41.964Z,98.23
2022-11-09T08:49:41.946Z,97.88
2022-11-09T08:50:41.953Z,97.67
2022-11-09T08:51:41.924Z,97.67
2022-11-09T08:52:41.914Z,97.47
2022-11-09T08:53:41.882Z,97.27
2022-11-09T08:54:41.884Z,96.86
2022-11-09T08:55:45.820Z,96.55
2022-11-09T08:56:42.851Z,96.66
2022-11-09T08:57:41.843Z,96.66
2022-11-09T08:58:41.833Z,96.45
2022-11-09T08:59:41.804Z,96.55
2022-11-09T09:00:41.822Z,96.45
2022-11-09T09:01:41.847Z,96.15
2022-11-09T09:02:41.773Z,96.04
2022-11-09T09:03:41.756Z,96.15
2022-11-09T09:04:41.836Z,95.94
2022-11-09T09:05:41.745Z,95.74
2022-11-09T09:06:41.824Z,95.84
2022-11-09T09:07:41.702Z,95.84
2022-11-09T09:08:41.695Z,96.04
2022-11-09T09:09:41.684Z,96.04
2022-11-09T09:10:41.691Z,96.04
2022-11-09T09:11:41.654Z,96.04
2022-11-09T09:12:41.635Z,95.74
2022-11-09T09:13:43.597Z,95.69
2022-11-09T09:14:41.615Z,95.49
2022-11-09T09:15:41.623Z,95.18
2022-11-09T09:16:41.596Z,94.98
2022-11-09T09:17:41.565Z,94.98
2022-11-09T09:18:41.565Z,95.08
2022-11-09T09:19:44.805Z,94.98
2022-11-09T09:20:42.556Z,94.98
2022-11-09T09:21:41.516Z,95.18
2022-11-09T09:22:41.504Z,95.29
2022-11-09T09:23:41.487Z,95.29
2022-11-09T09:24:41.487Z,95.29
2022-11-09T09:25:41.485Z,94.98
2022-11-09T09:26:41.457Z,94.37
2022-11-09T09:27:41.444Z,93.96
2022-11-09T09:28:41.418Z,93.76
2022-11-09T09:29:41.414Z,92.84
2022-11-09T09:30:41.443Z,92.13
2022-11-09T09:31:41.376Z,91.52
2022-11-09T09:32:41.373Z,91.31
2022-11-09T09:33:41.357Z,91.48
2022-11-09T09:34:41.347Z,91.07
2022-11-09T09:35:41.347Z,90.66
2022-11-09T09:36:47.337Z,90.66
2022-11-09T09:37:42.308Z,90.56
2022-11-09T09:38:41.285Z,89.85
2022-11-09T09:39:41.276Z,89.75
2022-11-09T09:40:41.308Z,89.85
2022-11-09T09:41:41.245Z,90.25
2022-11-09T09:42:41.235Z,89.54
2022-11-09T09:43:43.161Z,89.14
2022-11-09T09:44:41.211Z,89.24
2022-11-09T09:45:41.186Z,89.44
2022-11-09T09:46:41.205Z,89.64
2022-11-09T09:47:41.167Z,90.05
2022-11-09T09:48:41.158Z,90.16
2022-11-09T09:49:41.231Z,89.85
2022-11-09T09:50:41.128Z,89.24
2022-11-09T09:51:41.143Z,89.14
2022-11-09T09:52:41.098Z,89.00
2022-11-09T09:53:41.088Z,89.20
2022-11-09T09:54:41.077Z,89.30
2022-11-09T09:55:41.057Z,89.40
2022-11-09T09:56:41.068Z,89.50
2022-11-09T09:57:42.246Z,89.70
2022-11-09T09:58:41.038Z,89.70
2022-11-09T09:59:41.008Z,89.61
2022-11-09T10:00:41.005Z,89.50
2022-11-09T10:01:40.997Z,89.81
2022-11-09T10:02:40.978Z,89.81
2022-11-09T10:03:40.968Z,89.91
2022-11-09T10:04:41.007Z,89.91
2022-11-09T10:05:40.927Z,90.31
2022-11-09T10:06:41.016Z,90.37
2022-11-09T10:07:40.909Z,89.97
2022-11-09T10:08:40.898Z,89.87
2022-11-09T10:09:40.880Z,89.31
2022-11-09T10:10:40.878Z,88.91
2022-11-09T10:11:40.875Z,89.22
2022-11-09T10:12:40.840Z,88.91
2022-11-09T10:13:40.819Z,88.91
2022-11-09T10:14:40.811Z,88.91
2022-11-09T10:15:40.798Z,88.71
2022-11-09T10:16:40.803Z,88.60
2022-11-09T10:17:40.770Z,88.81
2022-11-09T10:18:40.760Z,88.91
2022-11-09T10:19:40.749Z,88.60
2022-11-09T10:20:40.760Z,88.50
2022-11-09T10:21:40.760Z,88.10
2022-11-09T10:22:40.708Z,88.30
2022-11-09T10:23:40.701Z,88.36
2022-11-09T10:24:48.524Z,88.26
2022-11-09T10:26:02.913Z,88.16
2022-11-09T10:26:41.670Z,87.95
2022-11-09T10:27:42.849Z,88.01
2022-11-09T10:29:01.651Z,88.01
2022-11-09T10:29:41.609Z,87.61
2022-11-09T10:30:40.590Z,87.30
2022-11-09T10:31:40.608Z,87.20
2022-11-09T10:32:40.620Z,87.77
2022-11-09T10:33:40.631Z,87.67
2022-11-09T10:34:40.544Z,86.45
2022-11-09T10:35:40.561Z,86.15
2022-11-09T10:36:40.590Z,86.25
2022-11-09T10:37:40.512Z,85.53
2022-11-09T10:38:40.593Z,85.74
2022-11-09T10:39:40.482Z,85.84
2022-11-09T10:40:40.471Z,85.84
2022-11-09T10:41:40.450Z,85.84
2022-11-09T10:42:40.462Z,85.13
2022-11-09T10:43:40.441Z,85.03
2022-11-09T10:44:40.410Z,85.13
2022-11-09T10:45:40.403Z,85.33
2022-11-09T10:46:40.401Z,85.44
2022-11-09T10:47:40.372Z,85.24
2022-11-09T10:48:40.422Z,85.33
2022-11-09T10:49:40.341Z,85.13
2022-11-09T10:50:40.333Z,84.93
2022-11-09T10:51:40.385Z,85.13
2022-11-09T10:52:44.544Z,85.33
2022-11-09T10:53:41.294Z,85.84
2022-11-09T10:54:40.285Z,85.84
2022-11-09T10:55:40.262Z,85.88
2022-11-09T10:57:00.623Z,85.47
2022-11-09T10:57:41.252Z,85.58
2022-11-09T10:58:40.228Z,85.68
2022-11-09T10:59:40.225Z,86.08
2022-11-09T11:00:40.196Z,86.19
2022-11-09T11:01:40.274Z,86.19
2022-11-09T11:02:40.172Z,86.29
2022-11-09T11:03:40.163Z,86.22
2022-11-09T11:04:40.143Z,86.33
2022-11-09T11:05:40.132Z,86.53
2022-11-09T11:06:40.207Z,86.94
2022-11-09T11:07:40.112Z,86.53
2022-11-09T11:08:40.095Z,86.43
2022-11-09T11:09:40.083Z,86.77
2022-11-09T11:10:40.072Z,86.98
2022-11-09T11:11:40.092Z,86.98
2022-11-09T11:12:40.036Z,87.08
2022-11-09T11:13:40.036Z,87.29
2022-11-09T11:14:40.013Z,87.59
2022-11-09T11:15:40.010Z,87.69
2022-11-09T11:16:40.003Z,87.69
2022-11-09T11:17:39.971Z,87.79
2022-11-09T11:18:39.997Z,87.79
2022-11-09T11:19:39.944Z,87.99
2022-11-09T11:20:39.931Z,88.40
2022-11-09T11:21:39.944Z,89.05
2022-11-09T11:22:39.900Z,89.26
2022-11-09T11:23:39.900Z,89.26
2022-11-09T11:24:39.882Z,89.56
2022-11-09T11:25:39.863Z,89.87
2022-11-09T11:26:39.879Z,89.87
2022-11-09T11:27:39.888Z,89.87
2022-11-09T11:28:39.824Z,89.87
2022-11-09T11:29:39.807Z,89.87
2022-11-09T11:30:39.809Z,90.07
2022-11-09T11:31:39.806Z,90.27
2022-11-09T11:32:40.679Z,90.37
2022-11-09T11:33:39.766Z,90.58
2022-11-09T11:34:59.275Z,90.78
2022-11-09T11:35:40.735Z,91.39
2022-11-09T11:36:39.723Z,91.43
2022-11-09T11:37:39.728Z,91.84
2022-11-09T11:38:39.686Z,91.94
2022-11-09T11:39:39.685Z,92.04
2022-11-09T11:40:39.655Z,92.25
2022-11-09T11:41:39.655Z,92.45
2022-11-09T11:42:39.657Z,92.45
2022-11-09T11:43:39.635Z,92.76
2022-11-09T11:44:39.617Z,92.86
2022-11-09T11:45:41.584Z,93.16
2022-11-09T11:46:39.596Z,93.47
2022-11-09T11:47:39.576Z,93.47
2022-11-09T11:48:39.577Z,93.47
2022-11-09T11:49:39.549Z,93.57
2022-11-09T11:50:39.523Z,93.77
2022-11-09T11:51:39.538Z,94.02
2022-11-09T11:52:39.496Z,94.53
2022-11-09T11:53:43.293Z,94.84
2022-11-09T11:54:39.457Z,95.24
2022-11-09T11:55:39.458Z,95.34
2022-11-09T11:56:39.557Z,95.34
2022-11-09T11:57:39.449Z,94.73
2022-11-09T11:58:39.429Z,94.63
2022-11-09T11:59:39.441Z,94.73
2022-11-09T12:00:39.408Z,94.73
2022-11-09T12:01:39.398Z,94.73
2022-11-09T12:02:39.416Z,94.73
2022-11-09T12:03:39.366Z,94.43
2022-11-09T12:04:39.340Z,94.63
2022-11-09T12:05:39.339Z,94.73
2022-11-09T12:06:39.723Z,94.73
2022-11-09T12:07:39.308Z,94.53
2022-11-09T12:08:39.289Z,94.02
2022-11-09T12:09:39.288Z,94.12
2022-11-09T12:10:39.260Z,94.53
2022-11-09T12:11:39.328Z,94.63
2022-11-09T12:12:39.239Z,94.63
2022-11-09T12:13:39.249Z,94.93
2022-11-09T12:14:39.288Z,94.93
2022-11-09T12:15:39.229Z,95.14
2022-11-09T12:16:39.210Z,95.04
2022-11-09T12:17:39.183Z,95.14
2022-11-09T12:18:39.164Z,95.04
2022-11-09T12:19:39.143Z,94.57
2022-11-09T12:20:39.150Z,94.57
2022-11-09T12:21:39.160Z,94.68
2022-11-09T12:22:39.113Z,94.88
2022-11-09T12:23:39.091Z,95.08
2022-11-09T12:24:39.074Z,95.08
2022-11-09T12:25:39.059Z,94.88
2022-11-09T12:26:39.080Z,94.57
2022-11-09T12:27:39.061Z,94.57
2022-11-09T12:28:39.047Z,94.57
2022-11-09T12:29:39.019Z,94.57
2022-11-09T12:30:38.991Z,94.47
2022-11-09T12:31:39.000Z,94.47
2022-11-09T12:32:38.971Z,94.57
2022-11-09T12:33:43.049Z,94.27
2022-11-09T12:34:38.949Z,93.86
2022-11-09T12:35:38.973Z,93.66
2022-11-09T12:36:38.930Z,93.55
2022-11-09T12:37:38.903Z,93.55
2022-11-09T12:38:38.894Z,93.66
2022-11-09T12:39:38.893Z,93.86
2022-11-09T12:40:38.871Z,94.02
2022-11-09T12:41:38.874Z,93.82
2022-11-09T12:42:38.862Z,93.51
2022-11-09T12:43:38.822Z,93.51
2022-11-09T12:44:38.822Z,93.51
2022-11-09T12:45:38.858Z,93.41
2022-11-09T12:46:38.809Z,93.01
2022-11-09T12:47:38.774Z,92.80
2022-11-09T12:48:38.762Z,92.80
2022-11-09T12:49:38.744Z,91.68
2022-11-09T12:50:38.760Z,90.56
2022-11-09T12:51:38.753Z,89.85
2022-11-09T12:52:38.702Z,89.85
2022-11-09T12:53:38.692Z,89.44